createdAt,value
2023-02-07T00:01:27.370Z,102864.44
2023-02-07T00:03:56.648Z,102871.53
2023-02-07T00:06:36.497Z,102882.19
2023-02-07T00:09:06.771Z,102879.56
2023-02-07T00:11:35.359Z,102874.34
2023-02-07T00:14:02.341Z,102870.81
2023-02-07T00:16:29.292Z,102882.31
2023-02-07T00:18:59.687Z,102898.28
2023-02-07T00:21:27.821Z,102893.91
2023-02-07T00:23:55.090Z,102897.47
2023-02-07T00:26:24.651Z,102901.03
2023-02-07T00:28:54.029Z,102905.47
2023-02-07T00:31:28.337Z,102915.22
2023-02-07T00:34:00.024Z,102902.84
2023-02-07T00:36:28.809Z,102895.81
2023-02-07T00:39:11.720Z,102894.00
2023-02-07T00:41:39.197Z,102891.34
2023-02-07T00:44:06.962Z,102897.47
2023-02-07T00:46:34.982Z,102896.63
2023-02-07T00:49:01.965Z,102900.13
2023-02-07T00:51:29.118Z,102893.91
2023-02-07T00:53:57.049Z,102903.66
2023-02-07T00:56:26.691Z,102893.00
2023-02-07T00:58:53.652Z,102886.72
2023-02-07T01:01:20.984Z,102888.50
2023-02-07T01:03:48.594Z,102880.50
2023-02-07T01:06:15.361Z,102881.28
2023-02-07T01:08:42.716Z,102875.06
2023-02-07T01:11:13.789Z,102874.09
2023-02-07T01:13:44.244Z,102874.06
2023-02-07T01:16:27.286Z,102870.56
2023-02-07T01:18:54.798Z,102869.69
2023-02-07T01:21:25.029Z,102875.88
2023-02-07T01:23:56.669Z,102876.75
2023-02-07T01:26:25.670Z,102873.22
2023-02-07T01:28:55.225Z,102871.50
2023-02-07T01:31:23.548Z,102874.16
2023-02-07T01:33:56.009Z,102878.69
2023-02-07T01:36:23.310Z,102883.16
2023-02-07T01:38:53.549Z,102877.91
2023-02-07T01:41:23.009Z,102881.44
2023-02-07T01:44:00.801Z,102881.53
2023-02-07T01:46:29.931Z,102888.69
2023-02-07T01:49:03.045Z,102883.41
2023-02-07T01:51:31.945Z,102887.88
2023-02-07T01:54:04.446Z,102881.75
2023-02-07T01:56:33.239Z,102887.09
2023-02-07T01:59:02.501Z,102884.47
2023-02-07T02:01:29.915Z,102882.78
2023-02-07T02:03:57.280Z,102885.50
2023-02-07T02:06:28.658Z,102887.28
2023-02-07T02:08:59.251Z,102889.13
2023-02-07T02:11:42.057Z,102889.16
2023-02-07T02:14:36.553Z,102883.06
2023-02-07T02:17:25.165Z,102882.25
2023-02-07T02:20:32.957Z,102873.44
2023-02-07T02:23:30.310Z,102884.09
2023-02-07T02:26:21.399Z,102877.09
2023-02-07T02:29:45.866Z,102881.59
2023-02-07T02:32:56.401Z,102877.25
2023-02-07T02:35:35.048Z,102871.97
2023-02-07T02:38:46.277Z,102858.75
2023-02-07T02:41:24.203Z,102850.81
2023-02-07T02:44:00.170Z,102849.97
2023-02-07T02:46:33.110Z,102857.06
2023-02-07T02:49:01.199Z,102851.75
2023-02-07T02:51:32.764Z,102857.97
2023-02-07T02:54:00.959Z,102845.63
2023-02-07T02:56:33.871Z,102854.44
2023-02-07T02:59:03.847Z,102852.63
2023-02-07T03:01:57.801Z,102851.78
2023-02-07T03:04:59.853Z,102840.25
2023-02-07T03:08:02.233Z,102824.41
2023-02-07T03:11:16.309Z,102825.28
2023-02-07T03:14:44.170Z,102820.94
2023-02-07T03:17:41.089Z,102830.72
2023-02-07T03:20:28.625Z,102821.91
2023-02-07T03:22:58.985Z,102827.25
2023-02-07T03:25:28.014Z,102822.88
2023-02-07T03:27:56.900Z,102825.53
2023-02-07T03:30:29.118Z,102832.59
2023-02-07T03:33:00.120Z,102829.09
2023-02-07T03:35:38.979Z,102818.53
2023-02-07T03:38:07.120Z,102812.38
2023-02-07T03:40:43.640Z,102821.31
2023-02-07T03:43:40.955Z,102823.13
2023-02-07T03:46:10.066Z,102810.72
2023-02-07T03:48:36.949Z,102816.91
2023-02-07T03:51:04.026Z,102809.03
2023-02-07T03:53:30.860Z,102808.13
2023-02-07T03:55:57.731Z,102812.53
2023-02-07T03:58:24.559Z,102819.66
2023-02-07T04:00:51.593Z,102810.91
2023-02-07T04:03:18.497Z,102810.91
2023-02-07T04:05:46.687Z,102801.25
2023-02-07T04:08:13.549Z,102812.78
2023-02-07T04:10:40.323Z,102799.53
2023-02-07T04:13:07.129Z,102799.53
2023-02-07T04:15:34.101Z,102813.69
2023-02-07T04:18:00.890Z,102814.53
2023-02-07T04:20:27.959Z,102809.31
2023-02-07T04:22:54.738Z,102808.41
2023-02-07T04:25:21.589Z,102815.50
2023-02-07T04:27:48.423Z,102812.00
2023-02-07T04:30:15.258Z,102812.88
2023-02-07T04:32:42.027Z,102797.94
2023-02-07T04:35:09.085Z,102801.53
2023-02-07T04:37:38.675Z,102805.97
2023-02-07T04:40:06.121Z,102797.19
2023-02-07T04:42:32.968Z,102793.69
2023-02-07T04:45:00.134Z,102802.53
2023-02-07T04:47:27.053Z,102802.59
2023-02-07T04:49:53.829Z,102799.03
2023-02-07T04:52:20.604Z,102805.28
2023-02-07T04:54:47.382Z,102800.06
2023-02-07T04:57:14.486Z,102817.72
2023-02-07T04:59:41.414Z,102810.69
2023-02-07T05:02:08.240Z,102811.59
2023-02-07T05:04:35.026Z,102810.69
2023-02-07T05:07:02.045Z,102810.69
2023-02-07T05:09:28.888Z,102813.34
2023-02-07T05:11:56.070Z,102806.31
2023-02-07T05:14:22.936Z,102816.97
2023-02-07T05:16:49.721Z,102808.13
2023-02-07T05:19:16.595Z,102808.16
2023-02-07T05:21:43.418Z,102806.38
2023-02-07T05:24:10.251Z,102811.75
2023-02-07T05:26:38.862Z,102806.44
2023-02-07T05:29:06.851Z,102806.47
2023-02-07T05:31:52.460Z,102821.50
2023-02-07T05:34:19.286Z,102810.03
2023-02-07T05:36:46.212Z,102818.06
2023-02-07T05:39:13.059Z,102808.34
2023-02-07T05:41:39.817Z,102806.66
2023-02-07T05:44:07.181Z,102805.78
2023-02-07T05:46:33.972Z,102814.63
2023-02-07T05:49:00.879Z,102812.88
2023-02-07T05:51:28.264Z,102801.44
2023-02-07T05:53:55.074Z,102806.75
2023-02-07T05:56:22.398Z,102820.84
2023-02-07T05:58:49.188Z,102815.56
2023-02-07T06:01:16.045Z,102804.09
2023-02-07T06:03:42.829Z,102810.25
2023-02-07T06:06:09.639Z,102819.16
2023-02-07T06:08:36.705Z,102819.16
2023-02-07T06:11:03.660Z,102820.91
2023-02-07T06:13:30.478Z,102820.03
2023-02-07T06:15:57.322Z,102827.13
2023-02-07T06:18:25.058Z,102823.63
2023-02-07T06:20:52.009Z,102831.59
2023-02-07T06:23:20.946Z,102834.25
2023-02-07T06:25:47.790Z,102840.47
2023-02-07T06:28:14.755Z,102844.88
2023-02-07T06:30:41.717Z,102847.53
2023-02-07T06:33:08.695Z,102852.03
2023-02-07T06:35:35.523Z,102852.94
2023-02-07T06:38:02.404Z,102852.03
2023-02-07T06:40:29.184Z,102856.50
2023-02-07T06:42:56.101Z,102864.47
2023-02-07T06:45:22.967Z,102860.06
2023-02-07T06:47:50.072Z,102856.53
2023-02-07T06:50:17.040Z,102855.69
2023-02-07T06:52:44.939Z,102861.88
2023-02-07T06:55:11.743Z,102866.34
2023-02-07T06:57:38.531Z,102861.94
2023-02-07T07:00:06.829Z,102857.53
2023-02-07T07:02:33.675Z,102867.25
2023-02-07T07:05:00.941Z,102867.28
2023-02-07T07:07:27.860Z,102869.06
2023-02-07T07:09:54.626Z,102866.41
2023-02-07T07:12:22.550Z,102875.22
2023-02-07T07:14:49.460Z,102875.22
2023-02-07T07:17:16.214Z,102868.16
2023-02-07T07:19:43.294Z,102870.81
2023-02-07T07:22:10.094Z,102875.22
2023-02-07T07:24:37.115Z,102879.66
2023-02-07T07:27:04.123Z,102885.81
2023-02-07T07:29:30.910Z,102881.41
2023-02-07T07:31:57.928Z,102879.66
2023-02-07T07:34:24.844Z,102884.94
2023-02-07T07:36:54.250Z,102886.69
2023-02-07T07:39:21.938Z,102884.09
2023-02-07T07:41:49.113Z,102886.75
2023-02-07T07:44:16.224Z,102885.84
2023-02-07T07:46:43.082Z,102884.97
2023-02-07T07:49:10.310Z,102890.28
2023-02-07T07:51:37.405Z,102888.47
2023-02-07T07:54:04.316Z,102886.69
2023-02-07T07:56:31.796Z,102896.38
2023-02-07T07:58:58.989Z,102891.06
2023-02-07T08:01:26.705Z,102885.72
2023-02-07T08:03:54.046Z,102884.84
2023-02-07T08:06:21.348Z,102886.56
2023-02-07T08:08:48.145Z,102886.53
2023-02-07T08:11:15.085Z,102888.25
2023-02-07T08:13:41.891Z,102893.53
2023-02-07T08:16:09.129Z,102888.19
2023-02-07T08:18:36.071Z,102889.91
2023-02-07T08:21:03.701Z,102884.56
2023-02-07T08:23:30.596Z,102888.91
2023-02-07T08:25:58.175Z,102902.97
2023-02-07T08:28:27.286Z,102887.00
2023-02-07T08:30:54.738Z,102891.31
2023-02-07T08:33:21.543Z,102896.56
2023-02-07T08:35:51.397Z,102899.09
2023-02-07T08:38:18.661Z,102899.91
2023-02-07T08:40:46.926Z,102877.75
2023-02-07T08:43:15.259Z,102880.31
2023-02-07T08:45:47.412Z,102893.47
2023-02-07T08:48:15.003Z,102885.41
2023-02-07T08:50:41.832Z,102892.41
2023-02-07T08:53:08.750Z,102896.69
2023-02-07T08:55:36.051Z,102909.81
2023-02-07T08:58:02.883Z,102905.22
2023-02-07T09:00:29.686Z,102904.19
2023-02-07T09:02:56.501Z,102908.41
2023-02-07T09:05:23.321Z,102915.19
2023-02-07T09:07:50.140Z,102905.31
2023-02-07T09:10:16.985Z,102901.56
2023-02-07T09:12:43.763Z,102911.94
2023-02-07T09:15:10.870Z,102915.25
2023-02-07T09:17:37.744Z,102913.25
2023-02-07T09:20:05.023Z,102915.66
2023-02-07T09:22:31.981Z,102915.44
2023-02-07T09:24:59.383Z,102922.28
2023-02-07T09:27:26.241Z,102916.72
2023-02-07T09:29:53.020Z,102915.75
2023-02-07T09:32:19.796Z,102926.97
2023-02-07T09:34:46.606Z,102923.22
2023-02-07T09:37:13.376Z,102922.25
2023-02-07T09:39:41.533Z,102920.31
2023-02-07T09:42:13.856Z,102931.69
2023-02-07T09:45:02.397Z,102931.50
2023-02-07T09:47:31.374Z,102933.94
2023-02-07T09:50:14.497Z,102933.78
2023-02-07T09:53:00.794Z,102930.09
2023-02-07T09:55:39.511Z,102930.84
2023-02-07T09:58:16.606Z,102936.94
2023-02-07T10:01:00.552Z,102929.59
2023-02-07T10:03:29.600Z,102934.69
2023-02-07T10:06:17.463Z,102922.13
2023-02-07T10:08:48.240Z,102928.91
2023-02-07T10:11:51.305Z,102937.56
2023-02-07T10:15:01.815Z,102924.84
2023-02-07T10:18:08.298Z,102916.59
2023-02-07T10:21:13.687Z,102913.59
2023-02-07T10:24:18.637Z,102924.00
2023-02-07T10:26:55.226Z,102923.72
2023-02-07T10:29:49.400Z,102921.66
2023-02-07T10:32:26.450Z,102922.25
2023-02-07T10:34:58.893Z,102929.91
2023-02-07T10:37:29.161Z,102935.00
2023-02-07T10:40:12.277Z,102920.50
2023-02-07T10:42:42.167Z,102925.53
2023-02-07T10:45:14.742Z,102920.03
2023-02-07T10:47:42.004Z,102922.44
2023-02-07T10:50:29.429Z,102916.84
2023-02-07T10:52:59.067Z,102917.41
2023-02-07T10:55:47.207Z,102910.97
2023-02-07T10:58:24.298Z,102914.31
2023-02-07T11:00:53.973Z,102899.03
2023-02-07T11:03:25.575Z,102913.00
2023-02-07T11:06:04.455Z,102920.78
2023-02-07T11:08:34.220Z,102912.50
2023-02-07T11:11:31.948Z,102913.13
2023-02-07T11:14:06.201Z,102903.00
2023-02-07T11:16:33.789Z,102909.84
2023-02-07T11:19:07.382Z,102905.09
2023-02-07T11:21:34.091Z,102898.63
2023-02-07T11:24:08.892Z,102891.06
2023-02-07T11:26:41.949Z,102895.03
2023-02-07T11:29:21.462Z,102901.91
2023-02-07T11:31:50.151Z,102893.56
2023-02-07T11:34:49.119Z,102896.81
2023-02-07T11:37:42.178Z,102890.22
2023-02-07T11:40:45.374Z,102884.63
2023-02-07T11:43:20.304Z,102881.63
2023-02-07T11:45:50.483Z,102881.25
2023-02-07T11:48:21.302Z,102889.84
2023-02-07T11:50:58.534Z,102880.59
2023-02-07T11:53:38.910Z,102874.06
2023-02-07T11:56:06.420Z,102874.75
2023-02-07T11:58:46.901Z,102870.03
2023-02-07T12:01:22.256Z,102863.44
2023-02-07T12:04:02.256Z,102867.66
2023-02-07T12:06:42.540Z,102868.28
2023-02-07T12:09:48.044Z,102861.78
2023-02-07T12:12:51.994Z,102854.19
2023-02-07T12:15:27.490Z,102857.53
2023-02-07T12:18:25.590Z,102849.22
2023-02-07T12:21:23.095Z,102847.94
2023-02-07T12:24:00.487Z,102856.50
2023-02-07T12:26:33.227Z,102851.69
2023-02-07T12:29:44.553Z,102852.31
2023-02-07T12:32:27.133Z,102840.84
2023-02-07T12:35:24.040Z,102836.16
2023-02-07T12:38:09.328Z,102834.81
2023-02-07T12:40:50.092Z,102837.16
2023-02-07T12:43:38.476Z,102836.06
2023-02-07T12:46:41.430Z,102836.63
2023-02-07T12:49:20.283Z,102836.22
2023-02-07T12:52:34.638Z,102830.59
2023-02-07T12:55:44.173Z,102823.00
2023-02-07T12:58:39.396Z,102822.69
2023-02-07T13:01:35.683Z,102817.00
2023-02-07T13:04:44.634Z,102818.44
2023-02-07T13:07:40.151Z,102807.56
2023-02-07T13:10:06.981Z,102802.72
2023-02-07T13:12:49.693Z,102790.91
2023-02-07T13:15:35.062Z,102796.88
2023-02-07T13:18:17.432Z,102794.75
2023-02-07T13:21:01.324Z,102789.22
2023-02-07T13:23:34.128Z,102791.34
2023-02-07T13:26:06.516Z,102793.94
2023-02-07T13:28:53.243Z,102781.16
2023-02-07T13:31:25.226Z,102781.75
2023-02-07T13:33:53.853Z,102770.06
2023-02-07T13:36:23.628Z,102768.72
2023-02-07T13:39:03.900Z,102762.09
2023-02-07T13:42:18.036Z,102766.53
2023-02-07T13:45:04.700Z,102764.41
2023-02-07T13:48:04.952Z,102769.34
2023-02-07T13:50:53.519Z,102774.81
2023-02-07T13:53:37.956Z,102765.69
2023-02-07T13:56:31.409Z,102765.34
2023-02-07T13:59:17.151Z,102760.78
2023-02-07T14:01:52.070Z,102748.81
2023-02-07T14:04:20.141Z,102743.25
2023-02-07T14:07:05.467Z,102751.22
2023-02-07T14:09:45.590Z,102753.66
2023-02-07T14:12:22.941Z,102750.09
2023-02-07T14:15:01.857Z,102760.78
2023-02-07T14:17:29.550Z,102763.47
2023-02-07T14:20:05.514Z,102756.19
2023-02-07T14:22:41.534Z,102752.56
2023-02-07T14:25:17.525Z,102749.06
2023-02-07T14:28:49.232Z,102756.09
2023-02-07T14:31:31.137Z,102754.34
2023-02-07T14:34:14.842Z,102754.34
2023-02-07T14:36:42.587Z,102757.03
2023-02-07T14:39:18.820Z,102762.41
2023-02-07T14:41:48.494Z,102756.09
2023-02-07T14:44:36.231Z,102752.56
2023-02-07T14:47:05.996Z,102756.09
2023-02-07T14:49:36.822Z,102755.13
2023-02-07T14:52:21.527Z,102754.28
2023-02-07T14:54:59.196Z,102747.06
2023-02-07T14:57:35.700Z,102739.09
2023-02-07T15:00:20.732Z,102747.25
2023-02-07T15:02:50.531Z,102752.63
2023-02-07T15:05:19.160Z,102746.47
2023-02-07T15:07:47.488Z,102744.66
2023-02-07T15:10:17.562Z,102741.09
2023-02-07T15:12:44.672Z,102745.59
2023-02-07T15:15:29.800Z,102751.84
2023-02-07T15:18:00.008Z,102738.41
2023-02-07T15:20:35.909Z,102735.88
2023-02-07T15:23:08.936Z,102738.72
2023-02-07T15:25:36.477Z,102741.63
2023-02-07T15:28:29.600Z,102746.28
2023-02-07T15:31:04.896Z,102753.56
2023-02-07T15:33:41.475Z,102752.03
2023-02-07T15:36:37.363Z,102750.53
2023-02-07T15:39:23.686Z,102744.47
2023-02-07T15:41:54.781Z,102750.84
2023-02-07T15:44:29.126Z,102740.28
2023-02-07T15:47:04.778Z,102744.97
2023-02-07T15:49:41.268Z,102744.34
2023-02-07T15:52:34.502Z,102755.16
2023-02-07T15:55:06.079Z,102757.16
2023-02-07T15:57:37.256Z,102750.06
2023-02-07T16:00:09.967Z,102748.41
2023-02-07T16:02:42.619Z,102747.59
2023-02-07T16:05:32.847Z,102746.81
2023-02-07T16:08:09.192Z,102749.63
2023-02-07T16:10:40.267Z,102748.81
2023-02-07T16:13:07.113Z,102747.94
2023-02-07T16:15:54.132Z,102751.69
2023-02-07T16:19:07.360Z,102747.50
2023-02-07T16:21:36.065Z,102749.34
2023-02-07T16:24:15.098Z,102753.09
2023-02-07T16:26:42.981Z,102759.53
2023-02-07T16:29:16.855Z,102750.75
2023-02-07T16:31:44.268Z,102758.09
2023-02-07T16:34:18.250Z,102752.91
2023-02-07T16:36:52.373Z,102749.59
2023-02-07T16:39:19.489Z,102756.94
2023-02-07T16:41:49.716Z,102744.69
2023-02-07T16:44:25.808Z,102752.13
2023-02-07T16:46:53.151Z,102754.09
2023-02-07T16:49:26.031Z,102747.22
2023-02-07T16:51:53.578Z,102745.66
2023-02-07T16:54:20.751Z,102745.91
2023-02-07T16:56:54.212Z,102733.66
2023-02-07T16:59:22.600Z,102736.50
2023-02-07T17:01:52.588Z,102735.84
2023-02-07T17:04:20.224Z,102733.41
2023-02-07T17:06:47.670Z,102739.03
2023-02-07T17:09:18.413Z,102743.81
2023-02-07T17:11:46.024Z,102752.13
2023-02-07T17:14:13.076Z,102747.94
2023-02-07T17:16:40.304Z,102751.78
2023-02-07T17:19:28.001Z,102753.03
2023-02-07T17:21:56.728Z,102742.59
2023-02-07T17:24:23.642Z,102741.09
2023-02-07T17:26:54.093Z,102744.03
2023-02-07T17:29:21.949Z,102742.53
2023-02-07T17:31:49.389Z,102747.25
2023-02-07T17:34:16.663Z,102738.63
2023-02-07T17:36:50.176Z,102746.03
2023-02-07T17:39:19.349Z,102747.09
2023-02-07T17:41:46.232Z,102751.81
2023-02-07T17:44:13.078Z,102745.75
2023-02-07T17:46:39.897Z,102744.13
2023-02-07T17:49:14.822Z,102748.78
2023-02-07T17:51:41.657Z,102750.56
2023-02-07T17:54:08.703Z,102751.59
2023-02-07T17:56:36.088Z,102761.44
2023-02-07T17:59:07.449Z,102765.19
2023-02-07T18:01:34.299Z,102757.97
2023-02-07T18:04:02.733Z,102767.88
2023-02-07T18:06:30.897Z,102769.75
2023-02-07T18:08:58.929Z,102773.38
2023-02-07T18:11:27.566Z,102774.19
2023-02-07T18:13:57.141Z,102768.69
2023-02-07T18:16:26.465Z,102770.47
2023-02-07T18:18:56.730Z,102768.03
2023-02-07T18:21:23.830Z,102768.16
2023-02-07T18:23:53.423Z,102768.22
2023-02-07T18:26:20.894Z,102771.91
2023-02-07T18:28:48.422Z,102773.81
2023-02-07T18:31:19.658Z,102767.72
2023-02-07T18:33:47.752Z,102772.22
2023-02-07T18:36:15.454Z,102774.09
2023-02-07T18:38:42.510Z,102768.72
2023-02-07T18:41:16.934Z,102769.66
2023-02-07T18:43:43.935Z,102771.53
2023-02-07T18:46:14.985Z,102769.81
2023-02-07T18:48:42.275Z,102785.03
2023-02-07T18:51:12.569Z,102782.47
2023-02-07T18:53:39.659Z,102795.91
2023-02-07T18:56:15.661Z,102795.19
2023-02-07T18:58:43.320Z,102797.00
2023-02-07T19:01:19.198Z,102800.59
2023-02-07T19:03:48.564Z,102797.19
2023-02-07T19:06:15.358Z,102795.47
2023-02-07T19:08:42.423Z,102788.34
2023-02-07T19:11:10.193Z,102792.03
2023-02-07T19:13:37.290Z,102794.84
2023-02-07T19:16:12.823Z,102790.50
2023-02-07T19:18:40.463Z,102787.88
2023-02-07T19:21:14.789Z,102793.34
2023-02-07T19:23:42.812Z,102795.22
2023-02-07T19:26:10.837Z,102797.00
2023-02-07T19:28:38.391Z,102783.78
2023-02-07T19:31:13.592Z,102791.06
2023-02-07T19:33:41.131Z,102793.75
2023-02-07T19:36:11.004Z,102788.50
2023-02-07T19:38:38.285Z,102791.28
2023-02-07T19:41:06.556Z,102797.66
2023-02-07T19:43:35.222Z,102795.09
2023-02-07T19:46:02.886Z,102791.56
2023-02-07T19:48:29.712Z,102799.75
2023-02-07T19:51:06.281Z,102796.28
2023-02-07T19:53:33.760Z,102803.63
2023-02-07T19:56:11.502Z,102794.94
2023-02-07T19:58:46.588Z,102802.28
2023-02-07T20:01:14.177Z,102801.59
2023-02-07T20:03:42.921Z,102800.03
2023-02-07T20:06:13.507Z,102802.16
2023-02-07T20:08:41.045Z,102804.16
2023-02-07T20:11:11.874Z,102809.81
2023-02-07T20:13:44.362Z,102799.41
2023-02-07T20:16:15.155Z,102797.81
2023-02-07T20:18:42.680Z,102798.06
2023-02-07T20:21:14.975Z,102793.81
2023-02-07T20:23:44.314Z,102804.72
2023-02-07T20:26:15.565Z,102797.00
2023-02-07T20:28:43.154Z,102792.78
2023-02-07T20:31:12.974Z,102793.84
2023-02-07T20:33:42.174Z,102792.22
2023-02-07T20:36:11.548Z,102787.13
2023-02-07T20:38:38.746Z,102780.19
2023-02-07T20:41:36.221Z,102783.16
2023-02-07T20:44:06.956Z,102777.94
2023-02-07T20:46:36.352Z,102778.97
2023-02-07T20:49:07.630Z,102771.22
2023-02-07T20:51:35.190Z,102786.41
2023-02-07T20:54:05.385Z,102787.38
2023-02-07T20:56:33.787Z,102785.81
2023-02-07T20:59:01.252Z,102778.03
2023-02-07T21:01:31.156Z,102784.41
2023-02-07T21:04:01.832Z,102781.03
2023-02-07T21:06:29.624Z,102775.88
2023-02-07T21:09:01.004Z,102784.81
2023-02-07T21:11:36.243Z,102776.13
2023-02-07T21:14:06.320Z,102786.03
2023-02-07T21:16:33.934Z,102783.44
2023-02-07T21:19:01.768Z,102784.47
2023-02-07T21:21:29.338Z,102777.41
2023-02-07T21:23:57.381Z,102780.25
2023-02-07T21:26:24.549Z,102768.78
2023-02-07T21:28:51.330Z,102774.38
2023-02-07T21:31:20.664Z,102777.09
2023-02-07T21:33:51.676Z,102771.84
2023-02-07T21:36:25.564Z,102764.88
2023-02-07T21:38:55.025Z,102771.09
2023-02-07T21:41:25.680Z,102767.69
2023-02-07T21:43:55.502Z,102765.09
2023-02-07T21:46:30.604Z,102758.94
2023-02-07T21:49:01.781Z,102760.91
2023-02-07T21:51:31.402Z,102772.53
2023-02-07T21:53:59.070Z,102766.44
2023-02-07T21:56:31.930Z,102776.28
2023-02-07T21:59:02.189Z,102772.81
2023-02-07T22:01:30.674Z,102774.66
2023-02-07T22:04:00.290Z,102772.13
2023-02-07T22:06:28.121Z,102762.44
2023-02-07T22:08:58.511Z,102760.69
2023-02-07T22:11:29.104Z,102765.19
2023-02-07T22:13:57.032Z,102767.94
2023-02-07T22:16:26.414Z,102764.53
2023-02-07T22:18:55.560Z,102762.81
2023-02-07T22:21:29.227Z,102762.94
2023-02-07T22:23:58.169Z,102761.19
2023-02-07T22:26:26.556Z,102761.28
2023-02-07T22:28:53.681Z,102768.44
2023-02-07T22:31:26.812Z,102769.50
2023-02-07T22:33:56.073Z,102773.16
2023-02-07T22:36:26.973Z,102768.00
2023-02-07T22:38:54.956Z,102761.81
2023-02-07T22:41:22.627Z,102769.06
2023-02-07T22:43:49.896Z,102770.84
2023-02-07T22:46:22.633Z,102770.03
2023-02-07T22:48:50.335Z,102759.53
2023-02-07T22:51:38.240Z,102758.75
2023-02-07T22:54:09.651Z,102756.13
2023-02-07T22:56:38.382Z,102766.84
2023-02-07T22:59:06.203Z,102757.16
2023-02-07T23:01:39.041Z,102764.38
2023-02-07T23:04:13.357Z,102762.63
2023-02-07T23:06:40.405Z,102763.59
2023-02-07T23:09:07.459Z,102758.25
2023-02-07T23:11:35.083Z,102759.22
2023-02-07T23:14:03.486Z,102767.31
2023-02-07T23:16:31.970Z,102765.53
2023-02-07T23:19:14.640Z,102761.25
2023-02-07T23:21:41.452Z,102763.03
2023-02-07T23:24:09.011Z,102752.41
2023-02-07T23:26:35.884Z,102752.53
2023-02-07T23:29:04.259Z,102751.72
2023-02-07T23:31:31.676Z,102742.94
2023-02-07T23:33:58.586Z,102744.66
2023-02-07T23:36:26.008Z,102747.44
2023-02-07T23:38:52.901Z,102747.47
2023-02-07T23:41:19.954Z,102744.84
2023-02-07T23:43:47.048Z,102740.50
2023-02-07T23:46:15.923Z,102744.97
2023-02-07T23:48:43.163Z,102746.84
2023-02-07T23:51:12.327Z,102738.88
2023-02-07T23:53:39.501Z,102738.03
2023-02-07T23:56:07.426Z,102738.97
2023-02-07T23:58:34.769Z,102734.63
